createdAt,value
2022-09-05T00:01:05.496Z,100.00
2022-09-05T00:02:09.874Z,100.00
2022-09-05T00:03:14.378Z,100.00
2022-09-05T00:04:24.814Z,100.00
2022-09-05T00:05:22.696Z,100.00
2022-09-05T00:06:25.981Z,100.00
2022-09-05T00:07:38.829Z,100.00
2022-09-05T00:08:33.057Z,100.00
2022-09-05T00:09:35.684Z,100.00
2022-09-05T00:11:15.390Z,100.00
2022-09-05T00:11:44.161Z,100.00
2022-09-05T00:12:46.889Z,100.00
2022-09-05T00:13:49.480Z,100.00
2022-09-05T00:15:17.087Z,100.00
2022-09-05T00:15:56.532Z,100.00
2022-09-05T00:16:59.694Z,100.00
2022-09-05T00:19:57.367Z,100.00
2022-09-05T00:24:18.692Z,100.00
2022-09-05T00:24:19.806Z,100.00
2022-09-05T00:24:29.349Z,100.00
2022-09-05T00:24:29.812Z,100.00
2022-09-05T00:24:37.400Z,100.00
2022-09-05T00:24:50.240Z,100.00
2022-09-05T00:25:35.569Z,100.00
2022-09-05T00:26:38.604Z,100.00
2022-09-05T00:27:43.117Z,100.00
2022-09-05T00:28:45.684Z,100.00
2022-09-05T00:31:05.702Z,100.00
2022-09-05T00:31:51.819Z,100.00
2022-09-05T00:31:57.793Z,100.00
2022-09-05T00:33:00.622Z,100.00
2022-09-05T00:34:03.275Z,100.00
2022-09-05T00:35:06.314Z,100.00
2022-09-05T00:36:09.956Z,100.00
2022-09-05T00:37:16.434Z,100.00
2022-09-05T00:38:17.079Z,100.00
2022-09-05T00:39:19.605Z,100.00
2022-09-05T00:40:22.808Z,100.00
2022-09-05T00:41:25.748Z,100.00
2022-09-05T00:42:29.704Z,100.00
2022-09-05T00:43:32.374Z,100.00
2022-09-05T00:44:34.941Z,100.00
2022-09-05T00:45:37.566Z,100.00
2022-09-05T00:46:40.631Z,100.00
2022-09-05T00:47:48.226Z,100.00
2022-09-05T00:48:48.095Z,100.00
2022-09-05T00:49:50.745Z,100.00
2022-09-05T00:50:54.052Z,100.00
2022-09-05T00:51:56.696Z,100.00
2022-09-05T00:53:07.209Z,100.00
2022-09-05T00:54:03.979Z,100.00
2022-09-05T00:55:06.548Z,100.00
2022-09-05T00:56:09.564Z,100.00
2022-09-05T00:57:12.192Z,100.00
2022-09-05T00:58:16.703Z,100.00
2022-09-05T00:59:19.272Z,100.00
2022-09-05T01:00:22.617Z,100.00
2022-09-05T01:01:26.652Z,100.00
2022-09-05T01:02:29.997Z,100.00
2022-09-05T01:03:34.352Z,100.00
2022-09-05T01:04:36.936Z,100.00
2022-09-05T01:05:39.596Z,100.00
2022-09-05T01:06:42.321Z,100.00
2022-09-05T01:07:46.796Z,100.00
2022-09-05T01:08:49.646Z,100.00
2022-09-05T01:09:52.217Z,100.00
2022-09-05T01:10:55.191Z,100.00
2022-09-05T01:11:57.763Z,100.00
2022-09-05T01:13:00.471Z,100.00
2022-09-05T01:14:03.051Z,100.00
2022-09-05T01:15:07.603Z,100.00
2022-09-05T01:16:11.412Z,100.00
2022-09-05T01:17:14.276Z,100.00
2022-09-05T01:18:16.803Z,100.00
2022-09-05T01:19:19.380Z,100.00
2022-09-05T01:20:22.906Z,100.00
2022-09-05T01:21:25.567Z,100.00
2022-09-05T01:22:28.339Z,100.00
2022-09-05T01:23:31.213Z,100.00
2022-09-05T01:24:33.784Z,100.00
2022-09-05T01:25:36.449Z,100.00
2022-09-05T01:26:41.069Z,100.00
2022-09-05T01:29:14.053Z,100.00
2022-09-05T01:29:16.984Z,100.00
2022-09-05T01:29:53.577Z,100.00
2022-09-05T01:30:56.723Z,100.00
2022-09-05T01:31:59.331Z,100.00
2022-09-05T01:33:05.770Z,100.00
2022-09-05T01:34:06.540Z,100.00
2022-09-05T01:35:09.290Z,100.00
2022-09-05T01:36:12.472Z,100.00
2022-09-05T01:37:24.983Z,100.00
2022-09-05T01:38:19.588Z,100.00
2022-09-05T01:40:15.475Z,100.00
2022-09-05T01:40:27.615Z,100.00
2022-09-05T01:41:30.755Z,100.00
2022-09-05T01:42:33.735Z,100.00
2022-09-05T01:43:36.571Z,100.00
2022-09-05T01:44:39.195Z,100.00
2022-09-05T01:45:41.906Z,100.00
2022-09-05T01:46:46.531Z,100.00
2022-09-05T01:47:49.188Z,100.00
2022-09-05T01:48:52.123Z,100.00
2022-09-05T01:49:55.025Z,100.00
2022-09-05T01:51:00.103Z,100.00
2022-09-05T01:52:04.987Z,100.00
2022-09-05T01:53:08.075Z,100.00
2022-09-05T01:54:24.226Z,100.00
2022-09-05T01:55:15.041Z,100.00
2022-09-05T01:56:18.181Z,100.00
2022-09-05T01:57:20.892Z,100.00
2022-09-05T01:58:23.564Z,100.00
2022-09-05T01:59:26.332Z,100.00
2022-09-05T02:00:29.209Z,100.00
2022-09-05T02:01:33.396Z,100.00
2022-09-05T02:02:36.462Z,100.00
2022-09-05T02:03:39.363Z,100.00
2022-09-05T02:04:41.891Z,100.00
2022-09-05T02:05:48.636Z,100.00
2022-09-05T02:06:49.215Z,100.00
2022-09-05T02:07:51.883Z,100.00
2022-09-05T02:08:54.553Z,100.00
2022-09-05T02:09:59.536Z,100.00
2022-09-05T02:11:01.633Z,100.00
2022-09-05T02:12:04.301Z,100.00
2022-09-05T02:13:07.126Z,100.00
2022-09-05T02:14:09.678Z,100.00
2022-09-05T02:15:12.205Z,100.00
2022-09-05T02:16:16.145Z,100.00
2022-09-05T02:17:31.894Z,100.00
2022-09-05T02:18:23.187Z,100.00
2022-09-05T02:19:25.754Z,100.00
2022-09-05T02:20:28.522Z,100.00
2022-09-05T02:21:31.190Z,100.00
2022-09-05T02:22:34.461Z,100.00
2022-09-05T02:23:41.837Z,100.00
2022-09-05T02:24:41.822Z,100.00
2022-09-05T02:26:00.998Z,100.00
2022-09-05T02:26:49.046Z,100.00
2022-09-05T02:28:05.662Z,100.00
2022-09-05T02:28:56.079Z,100.00
2022-09-05T02:29:58.691Z,100.00
2022-09-05T02:31:18.901Z,100.00
2022-09-05T02:32:06.487Z,100.00
2022-09-05T02:33:09.051Z,100.00
2022-09-05T02:34:11.540Z,100.00
2022-09-05T02:35:14.184Z,100.00
2022-09-05T02:36:17.159Z,100.00
2022-09-05T02:39:31.932Z,100.00
2022-09-05T02:41:17.160Z,100.00
2022-09-05T02:45:02.266Z,100.00
2022-09-05T02:45:06.539Z,100.00
2022-09-05T02:45:12.662Z,100.00
2022-09-05T02:45:13.411Z,100.00
2022-09-05T02:45:13.546Z,100.00
2022-09-05T02:45:16.851Z,100.00
2022-09-05T02:45:58.018Z,100.00
2022-09-05T02:47:01.147Z,100.00
2022-09-05T02:48:04.184Z,100.00
2022-09-05T02:49:21.697Z,100.00
2022-09-05T02:53:49.633Z,100.00
2022-09-05T02:57:29.247Z,100.00
2022-09-05T02:57:34.741Z,100.00
2022-09-05T02:57:35.414Z,100.00
2022-09-05T02:57:37.224Z,100.00
2022-09-05T02:57:40.446Z,100.00
2022-09-05T02:57:46.120Z,100.00
2022-09-05T02:58:07.721Z,100.00
2022-09-05T02:59:09.055Z,100.00
2022-09-05T02:59:53.674Z,100.00
2022-09-05T03:00:56.576Z,100.00
2022-09-05T03:01:59.346Z,100.00
2022-09-05T03:03:03.965Z,100.00
2022-09-05T03:04:06.804Z,100.00
2022-09-05T03:05:09.431Z,100.00
2022-09-05T03:06:12.451Z,100.00
2022-09-05T03:07:15.122Z,100.00
2022-09-05T03:08:17.791Z,100.00
2022-09-05T03:09:20.560Z,100.00
2022-09-05T03:10:28.342Z,100.00
2022-09-05T03:11:28.457Z,100.00
2022-09-05T03:12:31.126Z,100.00
2022-09-05T03:13:33.796Z,100.00
2022-09-05T03:14:36.362Z,100.00
2022-09-05T03:15:38.931Z,100.00
2022-09-05T03:16:47.129Z,100.00
2022-09-05T03:17:46.343Z,100.00
2022-09-05T03:18:48.842Z,100.00
2022-09-05T03:19:51.450Z,100.00
2022-09-05T03:20:54.732Z,100.00
2022-09-05T03:21:59.246Z,100.00
2022-09-05T03:23:01.774Z,100.00
2022-09-05T03:24:04.390Z,100.00
2022-09-05T03:25:06.947Z,100.00
2022-09-05T03:26:09.923Z,100.00
2022-09-05T03:27:12.621Z,100.00
2022-09-05T03:28:15.283Z,100.00
2022-09-05T03:29:18.633Z,100.00
2022-09-05T03:30:22.191Z,100.00
2022-09-05T03:31:24.845Z,100.00
2022-09-05T03:32:27.474Z,100.00
2022-09-05T03:33:30.144Z,100.00
2022-09-05T03:34:32.712Z,100.00
2022-09-05T03:35:35.153Z,100.00
2022-09-05T03:36:38.255Z,100.00
2022-09-05T03:37:41.126Z,100.00
2022-09-05T03:38:47.102Z,100.00
2022-09-05T03:39:48.351Z,100.00
2022-09-05T03:40:51.318Z,100.00
2022-09-05T03:41:54.260Z,100.00
2022-09-05T03:42:58.941Z,100.00
2022-09-05T03:44:01.547Z,100.00
2022-09-05T03:45:04.074Z,100.00
2022-09-05T03:46:07.068Z,100.00
2022-09-05T03:47:09.770Z,100.00
2022-09-05T03:48:27.709Z,100.00
2022-09-05T03:50:20.803Z,100.00
2022-09-05T03:54:57.047Z,100.00
2022-09-05T03:57:04.401Z,100.00
2022-09-05T03:57:14.766Z,100.00
2022-09-05T03:57:19.058Z,100.00
2022-09-05T03:57:20.406Z,100.00
2022-09-05T03:57:22.992Z,100.00
2022-09-05T03:57:23.498Z,100.00
2022-09-05T03:57:54.064Z,100.00
2022-09-05T03:58:59.096Z,100.00
2022-09-05T04:00:02.065Z,100.00
2022-09-05T04:01:17.588Z,100.00
2022-09-05T04:03:10.565Z,100.00
2022-09-05T04:08:10.000Z,100.00
2022-09-05T04:08:14.241Z,100.00
2022-09-05T04:08:16.801Z,100.00
2022-09-05T04:08:24.859Z,100.00
2022-09-05T04:08:26.242Z,100.00
2022-09-05T04:08:42.692Z,100.00
2022-09-05T04:09:51.139Z,100.00
2022-09-05T04:10:47.319Z,100.00
2022-09-05T04:11:51.597Z,100.00
2022-09-05T04:12:54.164Z,100.00
2022-09-05T04:13:56.834Z,100.00
2022-09-05T04:14:59.399Z,100.00
2022-09-05T04:16:01.972Z,100.00
2022-09-05T04:17:04.596Z,100.00
2022-09-05T04:18:09.154Z,100.00
2022-09-05T04:19:11.718Z,100.00
2022-09-05T04:20:15.511Z,100.00
2022-09-05T04:21:18.079Z,100.00
2022-09-05T04:22:20.576Z,100.00
2022-09-05T04:23:23.623Z,100.00
2022-09-05T04:24:27.927Z,100.00
2022-09-05T04:25:30.498Z,100.00
2022-09-05T04:26:33.371Z,100.00
2022-09-05T04:27:35.897Z,100.00
2022-09-05T04:28:38.496Z,100.00
2022-09-05T04:29:42.911Z,100.00
2022-09-05T04:30:45.817Z,100.00
2022-09-05T04:31:54.908Z,100.00
2022-09-05T04:32:54.794Z,100.00
2022-09-05T04:33:57.336Z,100.00
2022-09-05T04:35:00.070Z,100.00
2022-09-05T04:36:03.445Z,100.00
2022-09-05T04:37:07.333Z,100.00
2022-09-05T04:38:09.901Z,100.00
2022-09-05T04:39:12.471Z,100.00
2022-09-05T04:40:16.384Z,100.00
2022-09-05T04:41:18.947Z,100.00
2022-09-05T04:42:23.549Z,100.00
2022-09-05T04:43:26.220Z,100.00
2022-09-05T04:44:28.796Z,100.00
2022-09-05T04:45:31.677Z,100.00
2022-09-05T04:46:48.934Z,100.00
2022-09-05T04:47:39.256Z,100.00
2022-09-05T04:48:42.631Z,100.00
2022-09-05T04:49:45.612Z,100.00
2022-09-05T04:50:50.534Z,100.00
2022-09-05T04:52:00.397Z,100.00
2022-09-05T04:52:57.715Z,100.00
2022-09-05T04:54:00.288Z,100.00
2022-09-05T04:55:02.948Z,100.00
2022-09-05T04:56:05.928Z,100.00
2022-09-05T04:57:14.364Z,100.00
2022-09-05T04:58:14.440Z,100.00
2022-09-05T05:02:47.951Z,100.00
2022-09-05T05:06:03.698Z,100.00
2022-09-05T05:06:04.119Z,100.00
2022-09-05T05:06:11.038Z,100.00
2022-09-05T05:06:11.905Z,100.00
2022-09-05T05:06:18.352Z,100.00
2022-09-05T05:06:23.774Z,100.00
2022-09-05T05:06:50.811Z,100.00
2022-09-05T05:07:53.829Z,100.00
2022-09-05T05:08:56.769Z,100.00
2022-09-05T05:11:15.817Z,100.00
2022-09-05T05:14:23.034Z,100.00
2022-09-05T05:17:54.277Z,100.00
2022-09-05T05:17:55.650Z,100.00
2022-09-05T05:18:01.114Z,100.00
2022-09-05T05:18:07.631Z,100.00
2022-09-05T05:18:08.137Z,100.00
2022-09-05T05:18:11.479Z,100.00
2022-09-05T05:18:52.450Z,100.00
2022-09-05T05:19:41.250Z,100.00
2022-09-05T05:20:47.134Z,100.00
2022-09-05T05:21:50.030Z,100.00
2022-09-05T05:22:52.609Z,100.00
2022-09-05T05:23:55.571Z,100.00
2022-09-05T05:24:58.139Z,100.00
2022-09-05T05:26:00.708Z,100.00
2022-09-05T05:27:03.274Z,100.00
2022-09-05T05:28:08.932Z,100.00
2022-09-05T05:29:10.353Z,100.00
2022-09-05T05:30:14.368Z,100.00
2022-09-05T05:31:17.058Z,100.00
2022-09-05T05:32:31.528Z,100.00
2022-09-05T05:33:24.510Z,100.00
2022-09-05T05:34:27.089Z,100.00
2022-09-05T05:35:29.638Z,100.00
2022-09-05T05:36:33.160Z,100.00
2022-09-05T05:37:35.796Z,100.00
2022-09-05T05:38:39.294Z,100.00
2022-09-05T05:39:41.903Z,100.00
2022-09-05T05:40:51.216Z,100.00
2022-09-05T05:41:51.087Z,100.00
2022-09-05T05:42:53.784Z,100.00
2022-09-05T05:43:56.525Z,100.00
2022-09-05T05:44:59.100Z,100.00
2022-09-05T05:46:01.864Z,100.00
2022-09-05T05:47:04.748Z,100.00
2022-09-05T05:48:07.405Z,100.00
2022-09-05T05:49:09.972Z,100.00
2022-09-05T05:50:13.054Z,100.00
2022-09-05T05:51:15.585Z,100.00
2022-09-05T05:52:18.189Z,100.00
2022-09-05T05:53:31.978Z,100.00
2022-09-05T05:54:25.269Z,100.00
2022-09-05T05:55:50.410Z,100.00
2022-09-05T05:56:32.755Z,100.00
2022-09-05T05:57:35.420Z,100.00
2022-09-05T05:58:38.093Z,100.00
2022-09-05T05:59:40.763Z,100.00
2022-09-05T06:00:51.441Z,100.00
2022-09-05T06:01:50.539Z,100.00
2022-09-05T06:03:01.883Z,100.00
2022-09-05T06:03:57.894Z,100.00
2022-09-05T06:05:03.996Z,100.00
2022-09-05T06:06:06.399Z,100.00
2022-09-05T06:07:09.920Z,100.00
2022-09-05T06:10:19.743Z,100.00
2022-09-05T06:14:49.298Z,100.00
2022-09-05T06:14:52.969Z,100.00
2022-09-05T06:14:58.259Z,100.00
2022-09-05T06:14:59.464Z,100.00
2022-09-05T06:15:01.326Z,100.00
2022-09-05T06:15:06.831Z,100.00
2022-09-05T06:15:44.555Z,100.00
2022-09-05T06:16:47.473Z,100.00
2022-09-05T06:17:50.095Z,100.00
2022-09-05T06:18:52.670Z,100.00
2022-09-05T06:21:38.941Z,100.00
2022-09-05T06:22:08.552Z,100.00
2022-09-05T06:22:13.219Z,100.00
2022-09-05T06:23:16.564Z,99.65
2022-09-05T06:24:13.484Z,97.56
2022-09-05T06:25:16.684Z,100.00
2022-09-05T06:26:21.600Z,97.18
2022-09-05T06:27:24.158Z,96.08
2022-09-05T06:28:27.206Z,94.22
2022-09-05T06:29:34.496Z,96.65
2022-09-05T06:30:34.412Z,92.47
2022-09-05T06:31:36.993Z,94.80
2022-09-05T06:32:39.647Z,92.92
2022-09-05T06:33:44.270Z,93.42
2022-09-05T06:34:46.936Z,87.73
2022-09-05T06:35:49.508Z,85.65
2022-09-05T06:36:54.487Z,90.03
2022-09-05T06:37:57.812Z,86.39
2022-09-05T06:39:00.333Z,86.14
2022-09-05T06:40:03.418Z,83.76
2022-09-05T06:41:06.341Z,84.28
2022-09-05T06:42:08.954Z,83.85
2022-09-05T06:43:13.367Z,83.90
2022-09-05T06:44:15.974Z,81.74
2022-09-05T06:45:27.291Z,83.63
2022-09-05T06:46:54.652Z,85.15
2022-09-05T06:47:34.488Z,82.77
2022-09-05T06:48:44.238Z,83.46
2022-09-05T06:49:40.085Z,79.33
2022-09-05T06:51:07.188Z,79.81
2022-09-05T06:51:47.355Z,77.42
2022-09-05T06:52:50.023Z,78.28
2022-09-05T06:53:52.801Z,78.80
2022-09-05T06:54:59.829Z,77.46
2022-09-05T06:55:59.978Z,76.69
2022-09-05T06:57:02.503Z,78.25
2022-09-05T06:58:05.319Z,78.08
2022-09-05T06:59:09.927Z,80.70
2022-09-05T07:00:21.769Z,79.52
2022-09-05T07:01:17.074Z,79.83
2022-09-05T07:02:59.393Z,74.77
2022-09-05T07:03:26.659Z,71.58
2022-09-05T07:04:53.648Z,75.31
2022-09-05T07:05:44.559Z,75.60
2022-09-05T07:06:41.445Z,75.44
2022-09-05T07:07:45.988Z,76.72
2022-09-05T07:08:47.407Z,80.39
2022-09-05T07:09:50.039Z,79.31
2022-09-05T07:10:52.972Z,80.30
2022-09-05T07:11:55.587Z,80.05
2022-09-05T07:12:58.094Z,78.10
2022-09-05T07:14:00.721Z,78.17
2022-09-05T07:15:08.702Z,81.43
2022-09-05T07:16:08.985Z,81.78
2022-09-05T07:17:11.797Z,81.06
2022-09-05T07:18:14.360Z,81.27
2022-09-05T07:19:16.895Z,83.24
2022-09-05T07:20:20.563Z,82.41
2022-09-05T07:21:26.143Z,85.53
2022-09-05T07:22:48.573Z,86.76
2022-09-05T07:23:57.775Z,86.08
2022-09-05T07:24:54.214Z,84.89
2022-09-05T07:25:43.145Z,86.03
2022-09-05T07:26:51.851Z,88.13
2022-09-05T07:28:27.032Z,86.08
2022-09-05T07:28:55.190Z,86.19
2022-09-05T07:30:01.659Z,87.84
2022-09-05T07:31:03.608Z,89.44
2022-09-05T07:32:07.055Z,89.28
2022-09-05T07:33:09.919Z,90.29
2022-09-05T07:34:20.747Z,92.31
2022-09-05T07:35:17.142Z,94.08
2022-09-05T07:36:20.426Z,96.14
2022-09-05T07:37:23.400Z,95.53
2022-09-05T07:38:26.730Z,94.39
2022-09-05T07:39:30.618Z,94.75
2022-09-05T07:40:33.945Z,95.20
2022-09-05T07:41:36.867Z,95.99
2022-09-05T07:42:39.514Z,98.84
2022-09-05T07:43:42.080Z,97.50
2022-09-05T07:44:44.663Z,96.95
2022-09-05T07:45:55.415Z,97.87
2022-09-05T07:46:52.035Z,99.40
2022-09-05T07:47:54.601Z,99.00
2022-09-05T07:48:57.083Z,100.00
2022-09-05T07:50:49.903Z,99.93
2022-09-05T07:56:49.059Z,100.00
2022-09-05T07:57:02.242Z,97.18
2022-09-05T07:57:06.157Z,97.61
2022-09-05T07:57:06.275Z,95.65
2022-09-05T07:57:06.512Z,96.64
2022-09-05T07:57:10.686Z,100.00
2022-09-05T07:57:32.645Z,97.75
2022-09-05T07:58:35.991Z,96.73
2022-09-05T07:59:38.514Z,99.20
2022-09-05T08:00:41.518Z,99.55
2022-09-05T08:01:44.451Z,99.04
2022-09-05T08:02:51.388Z,97.34
2022-09-05T08:03:51.384Z,96.10
2022-09-05T08:04:54.041Z,93.40
2022-09-05T08:05:56.735Z,91.89
2022-09-05T08:07:45.753Z,93.81
2022-09-05T08:08:04.470Z,92.82
2022-09-05T08:09:21.782Z,88.68
2022-09-05T08:10:15.341Z,90.17
2022-09-05T08:11:24.138Z,92.76
2022-09-05T08:12:27.882Z,90.83
2022-09-05T08:13:27.550Z,89.73
2022-09-05T08:14:45.393Z,87.08
2022-09-05T08:16:00.633Z,89.24
2022-09-05T08:16:39.838Z,87.13
2022-09-05T08:17:42.467Z,89.64
2022-09-05T08:18:44.951Z,88.95
2022-09-05T08:19:47.543Z,88.87
2022-09-05T08:20:50.319Z,89.91
2022-09-05T08:21:52.980Z,88.41
2022-09-05T08:22:55.554Z,88.03
2022-09-05T08:23:58.177Z,83.31
2022-09-05T08:25:00.703Z,84.51
2022-09-05T08:26:03.673Z,85.34
2022-09-05T08:27:06.242Z,85.07
2022-09-05T08:28:10.744Z,83.52
2022-09-05T08:29:13.407Z,86.97
2022-09-05T08:30:26.374Z,86.73
2022-09-05T08:31:21.022Z,84.05
2022-09-05T08:32:23.667Z,84.50
2022-09-05T08:33:26.239Z,81.99
2022-09-05T08:34:35.415Z,80.82
2022-09-05T08:35:33.723Z,81.01
2022-09-05T08:36:37.085Z,78.60
2022-09-05T08:37:39.679Z,79.52
2022-09-05T08:38:42.245Z,78.11
2022-09-05T08:39:44.928Z,80.29
2022-09-05T08:41:05.668Z,80.07
2022-09-05T08:42:08.579Z,78.09
2022-09-05T08:44:15.011Z,79.24
2022-09-05T08:46:42.190Z,75.88
2022-09-05T08:46:47.281Z,74.73
2022-09-05T08:46:47.526Z,76.32
2022-09-05T08:47:41.476Z,75.11
2022-09-05T08:48:35.862Z,77.84
2022-09-05T08:49:42.701Z,75.46
2022-09-05T08:50:43.554Z,76.34
2022-09-05T08:51:54.308Z,71.66
2022-09-05T08:52:50.849Z,67.14
2022-09-05T08:53:53.757Z,67.74
2022-09-05T08:55:06.212Z,62.63
2022-09-05T08:56:01.475Z,59.74
2022-09-05T08:57:04.078Z,66.41
2022-09-05T08:58:06.649Z,68.28
2022-09-05T08:59:31.635Z,68.63
2022-09-05T09:00:19.058Z,67.36
2022-09-05T09:01:20.529Z,67.65
2022-09-05T09:02:47.284Z,67.83
2022-09-05T09:03:27.820Z,64.70
2022-09-05T09:05:01.916Z,67.46
2022-09-05T09:06:12.815Z,65.27
2022-09-05T09:06:40.429Z,64.00
2022-09-05T09:07:51.280Z,63.29
2022-09-05T09:08:47.610Z,60.55
2022-09-05T09:09:50.240Z,62.63
2022-09-05T09:10:53.235Z,64.93
2022-09-05T09:11:55.743Z,61.22
2022-09-05T09:12:58.290Z,59.82
2022-09-05T09:14:00.951Z,60.65
2022-09-05T09:15:05.433Z,61.43
2022-09-05T09:16:26.563Z,61.63
2022-09-05T09:17:29.195Z,59.11
2022-09-05T09:18:35.846Z,56.69
2022-09-05T09:19:36.278Z,58.41
2022-09-05T09:20:39.053Z,58.53
2022-09-05T09:21:43.583Z,58.93
2022-09-05T09:22:46.546Z,55.71
2022-09-05T09:23:49.211Z,60.51
2022-09-05T09:24:51.851Z,58.32
2022-09-05T09:25:56.388Z,57.89
2022-09-05T09:26:59.407Z,54.54
2022-09-05T09:28:45.298Z,55.73
2022-09-05T09:29:06.448Z,56.41
2022-09-05T09:30:09.961Z,57.02
2022-09-05T09:31:18.690Z,53.52
2022-09-05T09:33:27.261Z,50.52
2022-09-05T09:34:28.656Z,51.35
2022-09-05T09:35:31.193Z,54.57
2022-09-05T09:36:34.478Z,53.93
2022-09-05T09:37:49.850Z,53.56
2022-09-05T09:38:41.598Z,51.27
2022-09-05T09:39:44.194Z,49.42
2022-09-05T09:41:05.196Z,49.94
2022-09-05T09:42:08.037Z,46.84
2022-09-05T09:43:11.353Z,51.92
2022-09-05T09:44:14.021Z,50.77
2022-09-05T09:45:22.800Z,49.92
2022-09-05T09:46:22.289Z,50.94
2022-09-05T09:47:25.058Z,49.32
2022-09-05T09:48:27.666Z,47.43
2022-09-05T09:49:30.336Z,48.10
2022-09-05T09:50:33.112Z,47.04
2022-09-05T09:51:37.635Z,47.02
2022-09-05T09:52:40.299Z,46.33
2022-09-05T09:53:42.965Z,48.08
2022-09-05T09:54:45.670Z,49.23
2022-09-05T09:55:50.151Z,49.85
2022-09-05T09:56:53.154Z,51.31
2022-09-05T09:57:55.794Z,49.74
2022-09-05T09:58:58.488Z,51.65
2022-09-05T10:00:01.123Z,51.62
2022-09-05T10:01:03.691Z,50.20
2022-09-05T10:02:23.996Z,49.85
2022-09-05T10:05:35.417Z,46.75
2022-09-05T10:09:28.768Z,49.89
2022-09-05T10:10:35.337Z,48.62
2022-09-05T10:10:44.488Z,49.10
2022-09-05T10:10:48.643Z,49.41
2022-09-05T10:10:49.220Z,46.85
2022-09-05T10:10:49.902Z,46.22
2022-09-05T10:11:54.783Z,47.55
2022-09-05T10:13:08.444Z,48.36
2022-09-05T10:13:59.074Z,48.94
2022-09-05T10:15:03.767Z,48.44
2022-09-05T10:16:07.448Z,49.36
2022-09-05T10:17:10.590Z,51.17
2022-09-05T10:18:13.436Z,53.16
2022-09-05T10:19:16.511Z,52.90
2022-09-05T10:20:19.856Z,53.73
2022-09-05T10:21:23.386Z,53.65
2022-09-05T10:22:35.415Z,55.15
2022-09-05T10:23:30.876Z,56.43
2022-09-05T10:24:33.448Z,58.77
2022-09-05T10:25:36.108Z,60.25
2022-09-05T10:26:39.191Z,61.06
2022-09-05T10:27:44.639Z,61.51
2022-09-05T10:28:46.479Z,63.51
2022-09-05T10:29:49.170Z,63.40
2022-09-05T10:32:50.642Z,65.35
2022-09-05T10:35:10.209Z,65.75
2022-09-05T10:35:17.697Z,66.49
2022-09-05T10:35:20.804Z,66.46
2022-09-05T10:35:22.225Z,69.22
2022-09-05T10:36:17.719Z,66.60
2022-09-05T10:37:20.836Z,67.25
2022-09-05T10:38:23.331Z,66.37
2022-09-05T10:39:25.930Z,64.89
2022-09-05T10:40:28.841Z,63.53
2022-09-05T10:41:31.508Z,63.19
2022-09-05T10:42:38.514Z,64.84
2022-09-05T10:43:41.251Z,64.16
2022-09-05T10:44:43.778Z,65.45
2022-09-05T10:45:46.389Z,64.75
2022-09-05T10:46:51.796Z,64.14
2022-09-05T10:47:53.772Z,65.96
2022-09-05T10:48:56.343Z,65.43
2022-09-05T10:49:59.013Z,65.29
2022-09-05T10:51:02.087Z,63.68
2022-09-05T10:52:18.920Z,62.64
2022-09-05T10:53:09.169Z,63.65
2022-09-05T10:54:11.735Z,64.22
2022-09-05T10:55:15.628Z,63.68
2022-09-05T10:56:19.431Z,63.52
2022-09-05T10:57:22.216Z,65.18
2022-09-05T10:58:40.361Z,64.96
2022-09-05T11:02:19.045Z,65.32
2022-09-05T11:02:23.120Z,65.85
2022-09-05T11:02:28.567Z,64.17
2022-09-05T11:02:48.141Z,63.78
2022-09-05T11:03:49.235Z,63.71
2022-09-05T11:04:52.306Z,63.88
2022-09-05T11:05:55.127Z,64.58
2022-09-05T11:06:58.097Z,65.91
2022-09-05T11:08:00.763Z,67.28
2022-09-05T11:09:03.347Z,68.04
2022-09-05T11:10:06.212Z,66.70
2022-09-05T11:11:09.107Z,64.62
2022-09-05T11:12:13.597Z,65.93
2022-09-05T11:13:16.260Z,63.56
2022-09-05T11:14:18.785Z,63.02
2022-09-05T11:15:23.549Z,62.17
2022-09-05T11:16:26.362Z,63.35
2022-09-05T11:17:29.025Z,63.54
2022-09-05T11:18:55.437Z,65.00
2022-09-05T11:19:36.168Z,58.51
2022-09-05T11:20:38.939Z,56.69
2022-09-05T11:21:41.628Z,55.30
2022-09-05T11:22:44.281Z,55.95
2022-09-05T11:23:56.948Z,54.12
2022-09-05T11:24:51.462Z,54.65
2022-09-05T11:25:55.960Z,55.03
2022-09-05T11:27:23.502Z,56.23
2022-09-05T11:28:03.317Z,55.77
2022-09-05T11:29:05.975Z,54.79
2022-09-05T11:30:09.002Z,54.50
2022-09-05T11:31:13.565Z,55.62
2022-09-05T11:36:56.490Z,56.20
2022-09-05T11:39:45.956Z,58.15
2022-09-05T11:39:51.603Z,55.90
2022-09-05T11:39:52.305Z,57.25
2022-09-05T11:39:53.546Z,54.27
2022-09-05T11:40:00.458Z,60.71
2022-09-05T11:40:04.530Z,58.92
2022-09-05T11:41:08.382Z,57.00
2022-09-05T11:42:02.490Z,56.16
2022-09-05T11:43:06.334Z,53.56
2022-09-05T11:44:25.971Z,53.81
2022-09-05T11:45:13.507Z,55.30
2022-09-05T11:46:17.455Z,53.33
2022-09-05T11:47:27.771Z,51.98
2022-09-05T11:48:24.472Z,52.83
2022-09-05T11:49:27.302Z,52.88
2022-09-05T11:50:30.132Z,53.05
2022-09-05T11:51:33.838Z,53.34
2022-09-05T11:52:37.112Z,53.46
2022-09-05T11:53:39.676Z,55.51
2022-09-05T11:54:42.347Z,56.58
2022-09-05T11:55:44.875Z,55.01
2022-09-05T11:56:47.995Z,55.92
2022-09-05T11:57:50.569Z,56.63
2022-09-05T11:58:53.226Z,56.21
2022-09-05T12:00:30.907Z,56.71
2022-09-05T12:01:41.680Z,57.21
2022-09-05T12:02:16.683Z,56.16
2022-09-05T12:03:12.409Z,57.91
2022-09-05T12:04:16.894Z,57.38
2022-09-05T12:05:50.430Z,58.42
2022-09-05T12:06:26.266Z,57.78
2022-09-05T12:07:31.724Z,57.46
2022-09-05T12:08:37.209Z,58.67
2022-09-05T12:09:39.922Z,57.37
2022-09-05T12:10:47.960Z,57.65
2022-09-05T12:11:47.686Z,56.66
2022-09-05T12:12:51.791Z,55.66
2022-09-05T12:14:00.395Z,57.15
2022-09-05T12:16:27.569Z,57.92
2022-09-05T12:17:39.121Z,58.28
2022-09-05T12:19:06.307Z,59.22
2022-09-05T12:20:21.894Z,59.77
2022-09-05T12:21:40.808Z,62.50
2022-09-05T12:22:43.463Z,63.83
2022-09-05T12:24:11.564Z,65.61
2022-09-05T12:25:26.362Z,67.11
2022-09-05T12:27:38.200Z,67.56
2022-09-05T12:27:42.930Z,68.14
2022-09-05T12:29:27.700Z,68.99
2022-09-05T12:29:32.676Z,70.21
2022-09-05T12:30:14.294Z,71.47
2022-09-05T12:32:36.523Z,71.36
2022-09-05T12:33:32.359Z,70.08
2022-09-05T12:36:02.389Z,70.76
2022-09-05T12:36:04.061Z,71.93
2022-09-05T12:36:12.598Z,72.51
2022-09-05T12:40:27.630Z,74.51
2022-09-05T12:40:38.458Z,74.15
2022-09-05T12:41:35.535Z,77.98
2022-09-05T12:41:36.239Z,75.87
2022-09-05T12:41:44.939Z,80.01
2022-09-05T12:42:14.474Z,83.84
2022-09-05T12:44:03.320Z,88.47
2022-09-05T12:44:42.584Z,90.79
2022-09-05T12:45:17.050Z,94.55
2022-09-05T12:46:24.203Z,99.25
2022-09-05T12:47:26.421Z,100.00
2022-09-05T12:48:38.691Z,98.08
2022-09-05T12:49:36.109Z,100.00
2022-09-05T12:50:38.322Z,100.00
2022-09-05T12:51:46.139Z,100.00
2022-09-05T12:52:45.296Z,100.00
2022-09-05T12:53:48.080Z,100.00
2022-09-05T12:54:51.763Z,100.00
2022-09-05T12:56:38.694Z,100.00
2022-09-05T13:02:11.285Z,100.00
2022-09-05T13:02:56.672Z,100.00
2022-09-05T13:02:58.813Z,100.00
2022-09-05T13:03:05.546Z,100.00
2022-09-05T13:03:12.213Z,100.00
2022-09-05T13:03:12.460Z,100.00
2022-09-05T13:03:29.692Z,100.00
2022-09-05T13:04:33.438Z,100.00
2022-09-05T13:05:36.632Z,100.00
2022-09-05T13:06:39.558Z,100.00
2022-09-05T13:07:42.534Z,100.00
2022-09-05T13:08:45.103Z,100.00
2022-09-05T13:11:08.065Z,100.00
2022-09-05T13:14:05.769Z,100.00
2022-09-05T13:14:27.685Z,100.00
2022-09-05T13:14:49.487Z,100.00
2022-09-05T13:15:32.611Z,100.00
2022-09-05T13:16:36.870Z,100.00
2022-09-05T13:17:44.463Z,100.00
2022-09-05T13:20:10.766Z,100.00
2022-09-05T13:21:15.869Z,99.65
2022-09-05T13:22:20.896Z,100.00
2022-09-05T13:23:23.621Z,100.00
2022-09-05T13:24:38.352Z,100.00
2022-09-05T13:25:42.251Z,98.89
2022-09-05T13:26:44.998Z,96.18
2022-09-05T13:27:47.712Z,96.17
2022-09-05T13:28:50.620Z,95.74
2022-09-05T13:33:11.828Z,94.78
2022-09-05T13:38:03.040Z,92.19
2022-09-05T13:38:06.055Z,95.52
2022-09-05T13:38:11.508Z,93.91
2022-09-05T13:38:12.702Z,93.58
2022-09-05T13:38:13.186Z,93.06